createdAt,value
2022-12-15T00:01:53.369Z,85.17
2022-12-15T00:07:18.751Z,85.16
2022-12-15T00:12:47.120Z,85.22
2022-12-15T00:18:12.477Z,85.33
2022-12-15T00:23:39.813Z,85.27
2022-12-15T00:29:05.160Z,85.23
2022-12-15T00:34:30.572Z,85.33
2022-12-15T00:39:37.641Z,85.44
2022-12-15T00:44:44.608Z,85.38
2022-12-15T00:50:09.826Z,85.29
2022-12-15T00:55:34.431Z,85.30
2022-12-15T01:00:59.042Z,85.18
2022-12-15T01:06:27.692Z,85.41
2022-12-15T01:11:52.392Z,85.68
2022-12-15T01:17:17.048Z,85.78
2022-12-15T01:22:24.942Z,85.84
2022-12-15T01:27:32.536Z,85.87
2022-12-15T01:32:45.659Z,85.91
2022-12-15T01:37:53.316Z,85.90
2022-12-15T01:43:00.256Z,86.02
2022-12-15T01:48:10.600Z,86.16
2022-12-15T01:53:19.417Z,86.18
2022-12-15T01:58:26.870Z,86.05
2022-12-15T02:03:35.153Z,86.12
2022-12-15T02:08:45.762Z,86.12
2022-12-15T02:14:01.398Z,86.11
2022-12-15T02:19:29.009Z,85.96
2022-12-15T02:24:59.850Z,86.04
2022-12-15T02:30:26.946Z,86.08
2022-12-15T02:35:46.439Z,86.09
2022-12-15T02:41:00.728Z,86.21
2022-12-15T02:46:19.665Z,86.14
2022-12-15T02:51:44.907Z,86.03
2022-12-15T02:57:06.154Z,85.92
2022-12-15T03:02:16.369Z,85.94
2022-12-15T03:07:27.915Z,85.91
2022-12-15T03:12:34.908Z,85.75
2022-12-15T03:17:42.010Z,85.79
2022-12-15T03:22:49.331Z,85.68
2022-12-15T03:27:56.291Z,85.70
2022-12-15T03:33:03.276Z,85.67
2022-12-15T03:38:10.296Z,85.44
2022-12-15T03:43:17.433Z,85.44
2022-12-15T03:48:24.481Z,85.33
2022-12-15T03:53:31.697Z,85.30
2022-12-15T03:58:38.910Z,85.24
2022-12-15T04:03:45.945Z,85.27
2022-12-15T04:08:52.950Z,85.22
2022-12-15T04:13:59.834Z,85.16
2022-12-15T04:19:24.769Z,85.12
2022-12-15T04:24:50.090Z,84.98
2022-12-15T04:30:15.054Z,85.04
2022-12-15T04:35:40.034Z,85.07
2022-12-15T04:41:05.057Z,85.07
2022-12-15T04:46:29.772Z,85.05
2022-12-15T04:51:55.168Z,85.01
2022-12-15T04:57:19.902Z,85.03
2022-12-15T05:02:44.810Z,85.03
2022-12-15T05:08:09.723Z,84.85
2022-12-15T05:13:34.628Z,84.83
2022-12-15T05:19:00.276Z,84.87
2022-12-15T05:24:25.499Z,84.76
2022-12-15T05:29:50.378Z,84.80
2022-12-15T05:34:57.361Z,84.77
2022-12-15T05:40:04.652Z,84.61
2022-12-15T05:45:12.934Z,84.69
2022-12-15T05:50:20.058Z,84.65
2022-12-15T05:55:30.318Z,84.84
2022-12-15T06:00:38.025Z,84.79
2022-12-15T06:05:44.988Z,84.80
2022-12-15T06:10:56.417Z,84.74
2022-12-15T06:16:05.938Z,84.68
2022-12-15T06:21:14.559Z,84.68
2022-12-15T06:26:25.547Z,84.66
2022-12-15T06:31:34.387Z,84.60
2022-12-15T06:36:41.938Z,84.56
2022-12-15T06:41:48.865Z,84.47
2022-12-15T06:46:56.131Z,84.56
2022-12-15T06:52:03.525Z,84.59
2022-12-15T06:57:10.437Z,84.56
2022-12-15T07:02:25.198Z,84.53
2022-12-15T07:07:35.491Z,84.52
2022-12-15T07:12:42.452Z,84.53
2022-12-15T07:17:51.056Z,84.61
2022-12-15T07:23:00.716Z,84.47
2022-12-15T07:28:08.483Z,84.54
2022-12-15T07:33:15.865Z,84.50
2022-12-15T07:38:23.109Z,84.39
2022-12-15T07:43:31.941Z,84.34
2022-12-15T07:48:40.555Z,84.32
2022-12-15T07:53:47.570Z,84.30
2022-12-15T07:58:54.805Z,84.05
2022-12-15T08:04:01.933Z,83.79
2022-12-15T08:09:09.240Z,83.64
2022-12-15T08:14:17.872Z,83.60
2022-12-15T08:19:25.658Z,83.44
2022-12-15T08:24:32.603Z,82.07
2022-12-15T08:29:55.071Z,81.15
2022-12-15T08:35:00.650Z,80.29
2022-12-15T08:40:09.767Z,80.13
2022-12-15T08:45:16.729Z,79.67
2022-12-15T08:50:23.686Z,80.05
2022-12-15T08:55:30.970Z,79.75
2022-12-15T09:00:37.876Z,80.01
2022-12-15T09:05:44.824Z,79.54
2022-12-15T09:10:52.683Z,79.76
2022-12-15T09:16:10.434Z,79.11
2022-12-15T09:21:26.192Z,79.27
2022-12-15T09:26:34.987Z,78.61
2022-12-15T09:31:44.839Z,77.06
2022-12-15T09:36:52.164Z,77.58
2022-12-15T09:42:02.321Z,77.07
2022-12-15T09:47:18.796Z,77.71
2022-12-15T09:52:29.976Z,77.52
2022-12-15T09:57:41.482Z,77.15
2022-12-15T10:03:30.601Z,77.77
2022-12-15T10:08:40.981Z,77.95
2022-12-15T10:13:57.993Z,78.21
2022-12-15T10:19:15.526Z,78.11
2022-12-15T10:29:57.670Z,77.51
2022-12-15T10:35:08.713Z,76.33
2022-12-15T10:40:40.560Z,75.36
2022-12-15T10:45:47.563Z,75.61
2022-12-15T10:51:16.004Z,75.57
2022-12-15T10:56:33.325Z,76.22
2022-12-15T11:01:41.202Z,76.77
2022-12-15T11:06:48.542Z,76.86
2022-12-15T11:12:14.669Z,77.07
2022-12-15T11:17:23.202Z,76.96
2022-12-15T11:22:38.907Z,77.38
2022-12-15T11:27:48.584Z,77.51
2022-12-15T11:33:00.222Z,77.51
2022-12-15T11:38:14.278Z,76.96
2022-12-15T11:43:52.335Z,76.98
2022-12-15T11:49:25.458Z,76.68
2022-12-15T11:54:40.206Z,75.64
2022-12-15T12:00:04.055Z,75.90
2022-12-15T12:05:37.084Z,75.52
2022-12-15T12:10:52.616Z,75.79
2022-12-15T12:16:12.678Z,75.22
2022-12-15T12:21:25.626Z,75.10
2022-12-15T12:26:38.965Z,74.87
2022-12-15T12:37:33.317Z,75.18
2022-12-15T12:42:47.380Z,75.26
2022-12-15T12:48:01.729Z,74.54
2022-12-15T12:53:24.833Z,75.17
2022-12-15T12:58:39.248Z,73.44
2022-12-15T13:03:46.774Z,72.04
2022-12-15T13:08:56.108Z,72.30
2022-12-15T13:14:04.688Z,72.26
2022-12-15T13:19:12.063Z,71.92
2022-12-15T13:24:31.568Z,72.33
2022-12-15T13:29:54.574Z,72.88
2022-12-15T13:35:16.456Z,72.69
2022-12-15T13:40:51.755Z,72.31
2022-12-15T13:46:03.611Z,72.86
2022-12-15T13:51:23.444Z,72.65
2022-12-15T13:56:56.083Z,72.66
2022-12-15T14:02:03.265Z,72.38
2022-12-15T14:07:10.822Z,72.37
2022-12-15T14:12:17.785Z,72.79
2022-12-15T14:17:24.806Z,73.18
2022-12-15T14:22:32.770Z,73.51
2022-12-15T14:27:39.686Z,73.81
2022-12-15T14:32:49.719Z,74.08
2022-12-15T14:37:59.604Z,74.28
2022-12-15T14:43:10.297Z,74.47
2022-12-15T14:48:41.087Z,74.86
2022-12-15T14:53:53.165Z,75.00
2022-12-15T14:59:04.796Z,75.21
2022-12-15T15:03:03.892Z,77.46
2022-12-15T15:03:09.637Z,74.98
2022-12-15T15:04:29.283Z,75.51
2022-12-15T15:09:42.493Z,75.67
2022-12-15T15:14:52.932Z,75.99
2022-12-15T15:20:03.253Z,76.11
2022-12-15T15:25:40.860Z,76.23
2022-12-15T15:30:49.948Z,76.39
2022-12-15T15:35:59.367Z,76.66
2022-12-15T15:41:19.526Z,76.89
2022-12-15T15:46:29.508Z,77.11
2022-12-15T15:51:38.064Z,77.31
2022-12-15T15:56:45.523Z,77.33
2022-12-15T16:01:56.119Z,77.44
2022-12-15T16:07:05.855Z,77.65
2022-12-15T16:12:27.700Z,77.90
2022-12-15T16:17:34.996Z,78.05
2022-12-15T16:22:42.996Z,78.05
2022-12-15T16:27:59.098Z,78.22
2022-12-15T16:33:14.199Z,78.13
2022-12-15T16:38:26.879Z,78.37
2022-12-15T16:43:38.088Z,78.48
2022-12-15T16:48:46.489Z,78.57
2022-12-15T16:53:53.650Z,78.60
2022-12-15T16:59:32.654Z,79.00
2022-12-15T17:04:28.613Z,79.22
2022-12-15T17:09:41.088Z,79.43
2022-12-15T17:14:50.550Z,79.55
2022-12-15T17:20:28.090Z,79.66
2022-12-15T17:26:18.070Z,79.77
2022-12-15T17:31:05.893Z,79.93
2022-12-15T17:36:23.571Z,80.01
2022-12-15T17:42:32.211Z,80.01
2022-12-15T17:47:44.866Z,79.88
2022-12-15T17:53:05.510Z,79.86
2022-12-15T17:58:25.490Z,79.99
2022-12-15T18:03:41.602Z,80.18
2022-12-15T18:08:54.891Z,80.32
2022-12-15T18:14:04.894Z,80.42
2022-12-15T18:19:27.022Z,80.49
2022-12-15T18:30:40.265Z,80.85
2022-12-15T18:36:19.945Z,80.74
2022-12-15T18:41:57.500Z,80.95
2022-12-15T18:47:31.517Z,81.00
2022-12-15T18:52:50.505Z,81.03
2022-12-15T18:58:21.464Z,80.90
2022-12-15T19:04:06.768Z,80.78
2022-12-15T19:09:38.602Z,80.73
2022-12-15T19:14:51.030Z,80.74
2022-12-15T19:20:26.008Z,80.82
2022-12-15T19:26:23.205Z,80.98
2022-12-15T19:37:09.037Z,81.20
2022-12-15T19:42:25.519Z,81.08
2022-12-15T19:48:02.410Z,81.14
2022-12-15T19:53:28.227Z,81.39
2022-12-15T19:58:42.408Z,81.55
2022-12-15T20:03:57.005Z,81.62
2022-12-15T20:09:30.992Z,81.68
2022-12-15T20:14:41.473Z,81.70
2022-12-15T20:19:52.714Z,81.78
2022-12-15T20:25:09.146Z,81.89
2022-12-15T20:30:26.319Z,81.97
2022-12-15T20:35:46.980Z,82.17
2022-12-15T20:41:11.355Z,82.21
2022-12-15T20:46:42.271Z,82.20
2022-12-15T20:57:39.325Z,82.17
2022-12-15T21:02:55.315Z,82.22
2022-12-15T21:08:18.791Z,82.26
2022-12-15T21:13:40.041Z,82.19
2022-12-15T21:19:19.939Z,82.33
2022-12-15T21:24:58.544Z,82.46
2022-12-15T21:30:26.491Z,82.47
2022-12-15T21:35:36.554Z,82.52
2022-12-15T21:54:19.291Z,82.58
2022-12-15T22:00:19.849Z,82.72
2022-12-15T22:06:22.342Z,82.70
2022-12-15T22:19:59.193Z,82.75
2022-12-15T22:26:25.026Z,82.88
2022-12-15T22:32:05.509Z,82.99
2022-12-15T22:38:25.337Z,83.00
2022-12-15T22:44:35.496Z,83.06
2022-12-15T22:57:11.611Z,83.09
2022-12-15T23:08:44.552Z,83.14
2022-12-15T23:14:52.481Z,83.15
2022-12-15T23:27:46.000Z,83.27
2022-12-15T23:34:05.714Z,83.32
2022-12-15T23:40:09.535Z,83.39
2022-12-15T23:45:52.621Z,83.48
2022-12-15T23:51:48.523Z,83.53
2022-12-15T23:57:44.932Z,83.62
